sensor_id;sensor_type;location;lat;lon;timestamp;pressure;altitude;pressure_sealevel;temperature;humidity
55079;BME280;55187;49.496;6.010;2023-02-01T00:00:48;98091.84;;;2.36;100.00
55079;BME280;55187;49.496;6.010;2023-02-01T00:03:14;98084.72;;;2.38;100.00
55079;BME280;55187;49.496;6.010;2023-02-01T00:05:41;98082.16;;;2.27;100.00
55079;BME280;55187;49.496;6.010;2023-02-01T00:08:08;98078.78;;;2.36;100.00
55079;BME280;55187;49.496;6.010;2023-02-01T00:10:35;98075.00;;;2.40;100.00
55079;BME280;55187;49.496;6.010;2023-02-01T00:13:01;98077.38;;;2.32;100.00
55079;BME280;55187;49.496;6.010;2023-02-01T00:15:27;98075.81;;;2.41;100.00
55079;BME280;55187;49.496;6.010;2023-02-01T00:17:54;98079.63;;;2.37;100.00
55079;BME280;55187;49.496;6.010;2023-02-01T00:20:21;98064.09;;;2.35;100.00
55079;BME280;55187;49.496;6.010;2023-02-01T00:22:47;98074.66;;;2.34;100.00
55079;BME280;55187;49.496;6.010;2023-02-01T00:25:14;98078.69;;;2.38;100.00
55079;BME280;55187;49.496;6.010;2023-02-01T00:27:40;98070.72;;;2.39;100.00
55079;BME280;55187;49.496;6.010;2023-02-01T00:30:07;98080.59;;;2.36;100.00
55079;BME280;55187;49.496;6.010;2023-02-01T00:32:35;98084.47;;;2.41;100.00
55079;BME280;55187;49.496;6.010;2023-02-01T00:35:01;98072.94;;;2.44;100.00
55079;BME280;55187;49.496;6.010;2023-02-01T00:37:28;98072.00;;;2.45;100.00
55079;BME280;55187;49.496;6.010;2023-02-01T00:39:54;98067.88;;;2.42;100.00
55079;BME280;55187;49.496;6.010;2023-02-01T00:42:21;98071.91;;;2.46;100.00
55079;BME280;55187;49.496;6.010;2023-02-01T00:44:48;98075.19;;;2.48;100.00
55079;BME280;55187;49.496;6.010;2023-02-01T00:47:14;98070.22;;;2.45;100.00
55079;BME280;55187;49.496;6.010;2023-02-01T00:51:14;98060.47;;;2.47;100.00
55079;BME280;55187;49.496;6.010;2023-02-01T00:53:41;98047.78;;;2.43;100.00
55079;BME280;55187;49.496;6.010;2023-02-01T00:56:08;98054.28;;;2.48;100.00
55079;BME280;55187;49.496;6.010;2023-02-01T00:58:35;98066.88;;;2.55;100.00
55079;BME280;55187;49.496;6.010;2023-02-01T01:01:05;98060.00;;;2.54;100.00
55079;BME280;55187;49.496;6.010;2023-02-01T01:03:35;98048.25;;;2.48;100.00
55079;BME280;55187;49.496;6.010;2023-02-01T01:06:06;98051.91;;;2.57;100.00
55079;BME280;55187;49.496;6.010;2023-02-01T01:08:33;98044.16;;;2.55;100.00
55079;BME280;55187;49.496;6.010;2023-02-01T01:11:04;98044.88;;;2.57;100.00
55079;BME280;55187;49.496;6.010;2023-02-01T01:13:31;98066.13;;;2.64;100.00
55079;BME280;55187;49.496;6.010;2023-02-01T01:16:00;98051.91;;;2.57;100.00
55079;BME280;55187;49.496;6.010;2023-02-01T01:18:29;98065.78;;;2.57;100.00
55079;BME280;55187;49.496;6.010;2023-02-01T01:20:57;98065.56;;;2.60;100.00
55079;BME280;55187;49.496;6.010;2023-02-01T01:23:24;98067.78;;;2.65;100.00
55079;BME280;55187;49.496;6.010;2023-02-01T01:25:50;98075.03;;;2.61;100.00
55079;BME280;55187;49.496;6.010;2023-02-01T01:28:17;98084.41;;;2.64;100.00
55079;BME280;55187;49.496;6.010;2023-02-01T01:30:44;98075.16;;;2.60;100.00
55079;BME280;55187;49.496;6.010;2023-02-01T01:33:10;98086.19;;;2.63;100.00
55079;BME280;55187;49.496;6.010;2023-02-01T01:35:36;98086.91;;;2.65;100.00
55079;BME280;55187;49.496;6.010;2023-02-01T01:38:03;98084.88;;;2.58;100.00
55079;BME280;55187;49.496;6.010;2023-02-01T01:40:30;98095.94;;;2.61;100.00
55079;BME280;55187;49.496;6.010;2023-02-01T01:42:57;98095.00;;;2.62;100.00
55079;BME280;55187;49.496;6.010;2023-02-01T01:45:27;98101.16;;;2.61;100.00
55079;BME280;55187;49.496;6.010;2023-02-01T01:47:56;98098.19;;;2.66;100.00
55079;BME280;55187;49.496;6.010;2023-02-01T01:51:55;98098.44;;;2.63;100.00
55079;BME280;55187;49.496;6.010;2023-02-01T01:57:00;98083.47;;;2.65;100.00
55079;BME280;55187;49.496;6.010;2023-02-01T01:59:29;98083.31;;;2.66;100.00
55079;BME280;55187;49.496;6.010;2023-02-01T02:01:57;98076.78;;;2.72;100.00
55079;BME280;55187;49.496;6.010;2023-02-01T02:04:24;98062.69;;;2.63;100.00
55079;BME280;55187;49.496;6.010;2023-02-01T02:06:59;98051.03;;;2.67;100.00
55079;BME280;55187;49.496;6.010;2023-02-01T02:09:26;98059.34;;;2.61;100.00
55079;BME280;55187;49.496;6.010;2023-02-01T02:11:53;98072.63;;;2.69;100.00
55079;BME280;55187;49.496;6.010;2023-02-01T02:14:21;98054.34;;;2.69;100.00
55079;BME280;55187;49.496;6.010;2023-02-01T02:17:05;98059.44;;;2.71;100.00
55079;BME280;55187;49.496;6.010;2023-02-01T02:19:55;98051.03;;;2.67;100.00
55079;BME280;55187;49.496;6.010;2023-02-01T02:37:18;98006.66;;;2.77;100.00
55079;BME280;55187;49.496;6.010;2023-02-01T02:39:55;98002.66;;;2.73;100.00
55079;BME280;55187;49.496;6.010;2023-02-01T02:42:59;97998.94;;;2.76;100.00
55079;BME280;55187;49.496;6.010;2023-02-01T02:46:12;97993.97;;;2.72;100.00
55079;BME280;55187;49.496;6.010;2023-02-01T02:49:11;97996.00;;;2.69;100.00
55079;BME280;55187;49.496;6.010;2023-02-01T02:52:31;97998.06;;;2.65;100.00
55079;BME280;55187;49.496;6.010;2023-02-01T02:54:52;98021.19;;;2.70;100.00
55079;BME280;55187;49.496;6.010;2023-02-01T02:57:26;98026.31;;;2.71;100.00
55079;BME280;55187;49.496;6.010;2023-02-01T03:00:17;98013.69;;;2.77;100.00
55079;BME280;55187;49.496;6.010;2023-02-01T03:03:04;98014.38;;;2.79;100.00
55079;BME280;55187;49.496;6.010;2023-02-01T03:05:50;98011.78;;;2.79;100.00
55079;BME280;55187;49.496;6.010;2023-02-01T03:08:21;98009.88;;;2.81;100.00
55079;BME280;55187;49.496;6.010;2023-02-01T03:11:10;98021.16;;;2.81;100.00
55079;BME280;55187;49.496;6.010;2023-02-01T03:13:52;98022.94;;;2.81;100.00
55079;BME280;55187;49.496;6.010;2023-02-01T03:16:38;98021.00;;;2.83;100.00
55079;BME280;55187;49.496;6.010;2023-02-01T03:21:45;98017.25;;;2.76;100.00
55079;BME280;55187;49.496;6.010;2023-02-01T03:24:21;98022.34;;;2.77;100.00
55079;BME280;55187;49.496;6.010;2023-02-01T03:27:27;98013.44;;;2.80;100.00
55079;BME280;55187;49.496;6.010;2023-02-01T03:30:02;98024.31;;;2.85;100.00
55079;BME280;55187;49.496;6.010;2023-02-01T03:32:34;98015.78;;;2.83;100.00
55079;BME280;55187;49.496;6.010;2023-02-01T03:35:26;98031.22;;;2.86;100.00
55079;BME280;55187;49.496;6.010;2023-02-01T03:37:57;98030.78;;;2.81;100.00
55079;BME280;55187;49.496;6.010;2023-02-01T03:40:30;98031.34;;;2.84;100.00
55079;BME280;55187;49.496;6.010;2023-02-01T03:43:00;98026.94;;;2.85;100.00
55079;BME280;55187;49.496;6.010;2023-02-01T03:45:33;98021.00;;;2.83;100.00
55079;BME280;55187;49.496;6.010;2023-02-01T03:48:02;98028.84;;;2.83;100.00
55079;BME280;55187;49.496;6.010;2023-02-01T03:52:22;98024.84;;;2.79;100.00
55079;BME280;55187;49.496;6.010;2023-02-01T03:54:51;98021.97;;;2.82;100.00
55079;BME280;55187;49.496;6.010;2023-02-01T03:57:23;98028.16;;;2.81;100.00
55079;BME280;55187;49.496;6.010;2023-02-01T03:59:52;98023.16;;;2.78;100.00
55079;BME280;55187;49.496;6.010;2023-02-01T04:02:19;98027.91;;;2.84;100.00
55079;BME280;55187;49.496;6.010;2023-02-01T04:04:45;98030.63;;;2.82;100.00
55079;BME280;55187;49.496;6.010;2023-02-01T04:07:15;98028.72;;;2.84;100.00
55079;BME280;55187;49.496;6.010;2023-02-01T04:09:43;98038.34;;;2.84;100.00
55079;BME280;55187;49.496;6.010;2023-02-01T04:12:09;98038.25;;;2.85;100.00
55079;BME280;55187;49.496;6.010;2023-02-01T04:14:35;98042.28;;;2.78;100.00
55079;BME280;55187;49.496;6.010;2023-02-01T04:17:02;98043.47;;;2.85;100.00
55079;BME280;55187;49.496;6.010;2023-02-01T04:19:29;98046.91;;;2.86;100.00
55079;BME280;55187;49.496;6.010;2023-02-01T04:21:55;98048.53;;;2.87;100.00
55079;BME280;55187;49.496;6.010;2023-02-01T04:24:22;98039.44;;;2.81;100.00
55079;BME280;55187;49.496;6.010;2023-02-01T04:26:48;98051.91;;;2.78;100.00
55079;BME280;55187;49.496;6.010;2023-02-01T04:29:14;98049.31;;;2.78;100.00
55079;BME280;55187;49.496;6.010;2023-02-01T04:31:41;98034.72;;;2.75;100.00
55079;BME280;55187;49.496;6.010;2023-02-01T04:34:08;98049.31;;;2.78;100.00
55079;BME280;55187;49.496;6.010;2023-02-01T04:36:34;98047.91;;;2.73;100.00
55079;BME280;55187;49.496;6.010;2023-02-01T04:39:01;98057.41;;;2.75;100.00
55079;BME280;55187;49.496;6.010;2023-02-01T04:41:27;98060.72;;;2.77;100.00
55079;BME280;55187;49.496;6.010;2023-02-01T04:43:55;98055.06;;;2.71;100.00
55079;BME280;55187;49.496;6.010;2023-02-01T04:46:21;98058.13;;;2.77;100.00
55079;BME280;55187;49.496;6.010;2023-02-01T04:48:48;98052.63;;;2.80;100.00
55079;BME280;55187;49.496;6.010;2023-02-01T04:51:14;98057.72;;;2.81;100.00
55079;BME280;55187;49.496;6.010;2023-02-01T04:53:41;98053.72;;;2.77;100.00
55079;BME280;55187;49.496;6.010;2023-02-01T04:56:08;98056.06;;;2.80;100.00
55079;BME280;55187;49.496;6.010;2023-02-01T04:58:34;98036.81;;;2.81;100.00
55079;BME280;55187;49.496;6.010;2023-02-01T05:01:05;98048.38;;;2.79;100.00
55079;BME280;55187;49.496;6.010;2023-02-01T05:03:32;98045.16;;;2.75;100.00
55079;BME280;55187;49.496;6.010;2023-02-01T05:05:59;98043.25;;;2.77;100.00
55079;BME280;55187;49.496;6.010;2023-02-01T05:08:26;98048.47;;;2.77;100.00
55079;BME280;55187;49.496;6.010;2023-02-01T05:10:53;98042.00;;;2.71;100.00
55079;BME280;55187;49.496;6.010;2023-02-01T05:13:19;98036.19;;;2.68;100.00
55079;BME280;55187;49.496;6.010;2023-02-01T05:16:05;98046.03;;;2.64;100.00
55079;BME280;55187;49.496;6.010;2023-02-01T05:18:32;98048.41;;;2.67;100.00
55079;BME280;55187;49.496;6.010;2023-02-01T05:20:59;98043.41;;;2.64;100.00
55079;BME280;55187;49.496;6.010;2023-02-01T05:23:25;98043.56;;;2.63;100.00
55079;BME280;55187;49.496;6.010;2023-02-01T05:25:52;98045.66;;;2.69;100.00
55079;BME280;55187;49.496;6.010;2023-02-01T05:28:18;98055.50;;;2.77;100.00
55079;BME280;55187;49.496;6.010;2023-02-01T05:30:44;98056.59;;;2.74;100.00
55079;BME280;55187;49.496;6.010;2023-02-01T05:33:11;98057.53;;;2.73;100.00
55079;BME280;55187;49.496;6.010;2023-02-01T05:35:37;98055.72;;;2.73;100.00
55079;BME280;55187;49.496;6.010;2023-02-01T05:38:04;98050.50;;;2.73;100.00
55079;BME280;55187;49.496;6.010;2023-02-01T05:40:30;98046.63;;;2.68;100.00
55079;BME280;55187;49.496;6.010;2023-02-01T05:42:56;98053.44;;;2.59;100.00
55079;BME280;55187;49.496;6.010;2023-02-01T05:45:23;98073.75;;;2.56;100.00
55079;BME280;55187;49.496;6.010;2023-02-01T05:47:49;98083.16;;;2.47;100.00
55079;BME280;55187;49.496;6.010;2023-02-01T05:50:16;98096.47;;;2.44;100.00
55079;BME280;55187;49.496;6.010;2023-02-01T05:52:43;98108.56;;;2.56;100.00
55079;BME280;55187;49.496;6.010;2023-02-01T05:55:09;98097.94;;;2.58;100.00
55079;BME280;55187;49.496;6.010;2023-02-01T05:57:36;98098.03;;;2.46;100.00
55079;BME280;55187;49.496;6.010;2023-02-01T06:00:03;98103.25;;;2.46;100.00
55079;BME280;55187;49.496;6.010;2023-02-01T06:02:38;98102.53;;;2.44;100.00
55079;BME280;55187;49.496;6.010;2023-02-01T06:05:05;98108.22;;;2.49;100.00
55079;BME280;55187;49.496;6.010;2023-02-01T06:07:32;98111.38;;;2.53;100.00
55079;BME280;55187;49.496;6.010;2023-02-01T06:09:58;98114.97;;;2.52;100.00
55079;BME280;55187;49.496;6.010;2023-02-01T06:12:25;98108.09;;;2.51;100.00
55079;BME280;55187;49.496;6.010;2023-02-01T06:14:54;98108.09;;;2.51;100.00
55079;BME280;55187;49.496;6.010;2023-02-01T06:17:20;98098.59;;;2.50;100.00
55079;BME280;55187;49.496;6.010;2023-02-01T06:19:47;98093.84;;;2.44;100.00
55079;BME280;55187;49.496;6.010;2023-02-01T06:22:14;98106.97;;;2.33;100.00
55079;BME280;55187;49.496;6.010;2023-02-01T06:24:40;98088.56;;;2.23;100.00
55079;BME280;55187;49.496;6.010;2023-02-01T06:27:07;98096.63;;;2.20;100.00
55079;BME280;55187;49.496;6.010;2023-02-01T06:29:35;98088.34;;;2.15;100.00
55079;BME280;55187;49.496;6.010;2023-02-01T06:32:02;98081.59;;;2.12;100.00
55079;BME280;55187;49.496;6.010;2023-02-01T06:34:29;98080.16;;;2.08;100.00
55079;BME280;55187;49.496;6.010;2023-02-01T06:36:55;98085.41;;;1.97;100.00
55079;BME280;55187;49.496;6.010;2023-02-01T06:39:22;98083.16;;;1.92;100.00
55079;BME280;55187;49.496;6.010;2023-02-01T06:41:48;98087.31;;;1.83;100.00
55079;BME280;55187;49.496;6.010;2023-02-01T06:44:16;98088.50;;;1.79;100.00
55079;BME280;55187;49.496;6.010;2023-02-01T06:46:42;98100.72;;;1.79;100.00
55079;BME280;55187;49.496;6.010;2023-02-01T06:49:09;98101.31;;;1.71;100.00
55079;BME280;55187;49.496;6.010;2023-02-01T06:53:00;98099.31;;;1.63;100.00
55079;BME280;55187;49.496;6.010;2023-02-01T06:55:27;98102.72;;;1.53;100.00
55079;BME280;55187;49.496;6.010;2023-02-01T06:57:55;98103.41;;;1.32;100.00
55079;BME280;55187;49.496;6.010;2023-02-01T07:00:22;98097.00;;;1.25;100.00
55079;BME280;55187;49.496;6.010;2023-02-01T07:02:49;98111.09;;;1.22;100.00
55079;BME280;55187;49.496;6.010;2023-02-01T07:05:16;98114.53;;;1.23;100.00
55079;BME280;55187;49.496;6.010;2023-02-01T07:07:43;98125.88;;;1.22;100.00
55079;BME280;55187;49.496;6.010;2023-02-01T07:10:10;98129.00;;;1.27;100.00
55079;BME280;55187;49.496;6.010;2023-02-01T07:12:36;98139.97;;;1.19;100.00
55079;BME280;55187;49.496;6.010;2023-02-01T07:15:03;98129.91;;;1.15;100.00
55079;BME280;55187;49.496;6.010;2023-02-01T07:17:30;98137.31;;;1.32;100.00
55079;BME280;55187;49.496;6.010;2023-02-01T07:19:57;98133.25;;;1.28;100.00
55079;BME280;55187;49.496;6.010;2023-02-01T07:22:26;98129.00;;;1.27;100.00
55079;BME280;55187;49.496;6.010;2023-02-01T07:24:52;98122.84;;;1.39;100.00
55079;BME280;55187;49.496;6.010;2023-02-01T07:27:19;98128.78;;;1.41;100.00
55079;BME280;55187;49.496;6.010;2023-02-01T07:29:46;98123.94;;;1.48;100.00
55079;BME280;55187;49.496;6.010;2023-02-01T07:32:12;98142.31;;;1.58;100.00
55079;BME280;55187;49.496;6.010;2023-02-01T07:34:39;98130.97;;;1.59;100.00
55079;BME280;55187;49.496;6.010;2023-02-01T07:37:05;98136.38;;;1.56;100.00
55079;BME280;55187;49.496;6.010;2023-02-01T07:39:32;98138.31;;;1.65;100.00
55079;BME280;55187;49.496;6.010;2023-02-01T07:41:59;98150.16;;;1.69;100.00
55079;BME280;55187;49.496;6.010;2023-02-01T07:44:26;98145.78;;;1.70;100.00
55079;BME280;55187;49.496;6.010;2023-02-01T07:46:52;98146.50;;;1.72;100.00
55079;BME280;55187;49.496;6.010;2023-02-01T07:49:18;98147.09;;;1.75;100.00
55079;BME280;55187;49.496;6.010;2023-02-01T07:51:45;98144.59;;;1.85;100.00
55079;BME280;55187;49.496;6.010;2023-02-01T07:54:11;98141.03;;;1.75;100.00
55079;BME280;55187;49.496;6.010;2023-02-01T07:56:38;98143.06;;;1.82;100.00
55079;BME280;55187;49.496;6.010;2023-02-01T07:59:04;98135.09;;;1.84;100.00
55079;BME280;55187;49.496;6.010;2023-02-01T08:01:30;98141.41;;;1.93;100.00
55079;BME280;55187;49.496;6.010;2023-02-01T08:03:58;98138.78;;;2.04;100.00
55079;BME280;55187;49.496;6.010;2023-02-01T08:06:26;98150.91;;;2.05;100.00
55079;BME280;55187;49.496;6.010;2023-02-01T08:08:53;98157.41;;;2.10;100.00
55079;BME280;55187;49.496;6.010;2023-02-01T08:11:21;98165.84;;;2.14;100.00
55079;BME280;55187;49.496;6.010;2023-02-01T08:13:48;98168.22;;;2.06;100.00
55079;BME280;55187;49.496;6.010;2023-02-01T08:16:16;98166.88;;;2.12;100.00
55079;BME280;55187;49.496;6.010;2023-02-01T08:18:43;98170.00;;;2.17;100.00
55079;BME280;55187;49.496;6.010;2023-02-01T08:21:15;98164.28;;;2.23;100.00
55079;BME280;55187;49.496;6.010;2023-02-01T08:23:43;98165.00;;;2.25;100.00
55079;BME280;55187;49.496;6.010;2023-02-01T08:26:22;98159.75;;;2.36;100.00
55079;BME280;55187;49.496;6.010;2023-02-01T08:28:52;98163.81;;;2.29;100.00
55079;BME280;55187;49.496;6.010;2023-02-01T08:31:21;98158.56;;;2.40;100.00
55079;BME280;55187;49.496;6.010;2023-02-01T08:33:51;98164.63;;;2.41;100.00
55079;BME280;55187;49.496;6.010;2023-02-01T08:36:19;98162.94;;;2.62;100.00
55079;BME280;55187;49.496;6.010;2023-02-01T08:38:46;98166.38;;;2.63;100.00
55079;BME280;55187;49.496;6.010;2023-02-01T08:41:15;98164.94;;;2.70;100.00
55079;BME280;55187;49.496;6.010;2023-02-01T08:43:43;98150.19;;;2.69;100.00
55079;BME280;55187;49.496;6.010;2023-02-01T08:46:10;98150.69;;;2.63;100.00
55079;BME280;55187;49.496;6.010;2023-02-01T08:48:37;98147.03;;;2.54;100.00
55079;BME280;55187;49.496;6.010;2023-02-01T08:51:09;98148.44;;;2.58;100.00
55079;BME280;55187;49.496;6.010;2023-02-01T08:53:36;98160.81;;;2.56;100.00
55079;BME280;55187;49.496;6.010;2023-02-01T08:56:04;98150.13;;;2.48;100.00
55079;BME280;55187;49.496;6.010;2023-02-01T08:58:30;98159.25;;;2.65;100.00
55079;BME280;55187;49.496;6.010;2023-02-01T09:00:57;98170.41;;;2.67;100.00
55079;BME280;55187;49.496;6.010;2023-02-01T09:03:23;98171.81;;;2.60;100.00
55079;BME280;55187;49.496;6.010;2023-02-01T09:05:50;98172.41;;;2.75;100.00
55079;BME280;55187;49.496;6.010;2023-02-01T09:08:17;98183.56;;;2.77;100.00
55079;BME280;55187;49.496;6.010;2023-02-01T09:10:44;98192.09;;;2.79;100.00
55079;BME280;55187;49.496;6.010;2023-02-01T09:13:11;98192.19;;;2.88;100.00
55079;BME280;55187;49.496;6.010;2023-02-01T09:15:37;98200.50;;;2.93;100.00
55079;BME280;55187;49.496;6.010;2023-02-01T09:18:04;98203.38;;;2.90;100.00
55079;BME280;55187;49.496;6.010;2023-02-01T09:20:30;98206.09;;;2.89;100.00
55079;BME280;55187;49.496;6.010;2023-02-01T09:22:56;98211.31;;;2.89;100.00
55079;BME280;55187;49.496;6.010;2023-02-01T09:25:23;98203.94;;;2.94;100.00
55079;BME280;55187;49.496;6.010;2023-02-01T09:27:49;98207.03;;;2.99;100.00
55079;BME280;55187;49.496;6.010;2023-02-01T09:30:16;98208.56;;;3.02;100.00
55079;BME280;55187;49.496;6.010;2023-02-01T09:32:42;98216.56;;;2.78;100.00
55079;BME280;55187;49.496;6.010;2023-02-01T09:35:09;98236.19;;;2.83;100.00
55079;BME280;55187;49.496;6.010;2023-02-01T09:37:35;98229.28;;;2.82;100.00
55079;BME280;55187;49.496;6.010;2023-02-01T09:40:03;98228.75;;;3.00;100.00
55079;BME280;55187;49.496;6.010;2023-02-01T09:48:29;98225.75;;;2.72;100.00
55079;BME280;55187;49.496;6.010;2023-02-01T14:56:28;98109.56;;;3.91;100.00
55079;BME280;55187;49.496;6.010;2023-02-01T14:59:07;98120.00;;;3.81;100.00
55079;BME280;55187;49.496;6.010;2023-02-01T15:01:38;98118.78;;;3.85;100.00
55079;BME280;55187;49.496;6.010;2023-02-01T15:07:11;98111.75;;;3.86;100.00
55079;BME280;55187;49.496;6.010;2023-02-01T15:11:56;98115.97;;;3.77;100.00
55079;BME280;55187;49.496;6.010;2023-02-01T15:14:25;98114.19;;;3.77;100.00
55079;BME280;55187;49.496;6.010;2023-02-01T15:16:51;98112.31;;;3.89;100.00
55079;BME280;55187;49.496;6.010;2023-02-01T15:19:23;98110.41;;;3.91;100.00
55079;BME280;55187;49.496;6.010;2023-02-01T15:21:53;98124.19;;;3.93;100.00
55079;BME280;55187;49.496;6.010;2023-02-01T15:26:51;98119.69;;;4.05;100.00
55079;BME280;55187;49.496;6.010;2023-02-01T15:29:20;98121.44;;;3.95;100.00
55079;BME280;55187;49.496;6.010;2023-02-01T15:31:51;98114.38;;;3.95;100.00
55079;BME280;55187;49.496;6.010;2023-02-01T15:34:19;98105.66;;;3.75;100.00
55079;BME280;55187;49.496;6.010;2023-02-01T15:36:46;98102.63;;;3.80;100.00
55079;BME280;55187;49.496;6.010;2023-02-01T15:39:25;98091.84;;;3.73;100.00
55079;BME280;55187;49.496;6.010;2023-02-01T15:41:56;98098.63;;;3.76;100.00
55079;BME280;55187;49.496;6.010;2023-02-01T15:44:45;98095.56;;;3.71;100.00
55079;BME280;55187;49.496;6.010;2023-02-01T15:47:29;98092.41;;;3.77;100.00
55079;BME280;55187;49.496;6.010;2023-02-01T15:49:59;98095.88;;;3.77;100.00
55079;BME280;55187;49.496;6.010;2023-02-01T15:52:36;98095.72;;;3.79;100.00
55079;BME280;55187;49.496;6.010;2023-02-01T15:57:47;98091.72;;;3.75;100.00
55079;BME280;55187;49.496;6.010;2023-02-01T16:02:56;98115.09;;;3.67;100.00
55079;BME280;55187;49.496;6.010;2023-02-01T16:05:44;98111.13;;;3.72;100.00
55079;BME280;55187;49.496;6.010;2023-02-01T16:08:14;98113.03;;;3.70;100.00
55079;BME280;55187;49.496;6.010;2023-02-01T16:10:44;98107.97;;;3.69;100.00
55079;BME280;55187;49.496;6.010;2023-02-01T16:13:12;98121.81;;;3.60;100.00
55079;BME280;55187;49.496;6.010;2023-02-01T16:15:39;98128.91;;;3.48;100.00
55079;BME280;55187;49.496;6.010;2023-02-01T16:18:06;98131.97;;;3.53;100.00
55079;BME280;55187;49.496;6.010;2023-02-01T16:20:37;98129.75;;;3.48;100.00
55079;BME280;55187;49.496;6.010;2023-02-01T16:23:05;98133.56;;;3.44;100.00
55079;BME280;55187;49.496;6.010;2023-02-01T16:25:33;98141.84;;;3.49;100.00
55079;BME280;55187;49.496;6.010;2023-02-01T16:27:59;98134.66;;;3.42;100.00
55079;BME280;55187;49.496;6.010;2023-02-01T16:30:26;98130.78;;;3.36;100.00
55079;BME280;55187;49.496;6.010;2023-02-01T16:32:56;98129.81;;;3.37;100.00
55079;BME280;55187;49.496;6.010;2023-02-01T16:35:33;98132.81;;;3.32;100.00
55079;BME280;55187;49.496;6.010;2023-02-01T16:38:04;98146.59;;;3.34;100.00
55079;BME280;55187;49.496;6.010;2023-02-01T16:40:34;98134.22;;;3.36;100.00
55079;BME280;55187;49.496;6.010;2023-02-01T16:43:01;98141.81;;;3.40;100.00
55079;BME280;55187;49.496;6.010;2023-02-01T16:45:28;98148.56;;;3.42;100.00
55079;BME280;55187;49.496;6.010;2023-02-01T16:47:55;98141.41;;;3.44;100.00
55079;BME280;55187;49.496;6.010;2023-02-01T16:50:24;98150.03;;;3.35;100.00
55079;BME280;55187;49.496;6.010;2023-02-01T16:52:52;98145.25;;;3.40;100.00
55079;BME280;55187;49.496;6.010;2023-02-01T16:58:13;98152.84;;;3.22;100.00
55079;BME280;55187;49.496;6.010;2023-02-01T17:00:40;98148.28;;;3.24;100.00
55079;BME280;55187;49.496;6.010;2023-02-01T17:03:06;98153.16;;;3.29;100.00
55079;BME280;55187;49.496;6.010;2023-02-01T17:05:34;98157.31;;;3.31;100.00
55079;BME280;55187;49.496;6.010;2023-02-01T17:08:05;98156.22;;;3.34;100.00
55079;BME280;55187;49.496;6.010;2023-02-01T17:10:32;98156.41;;;3.42;100.00
55079;BME280;55187;49.496;6.010;2023-02-01T17:12:59;98160.81;;;3.42;100.00
55079;BME280;55187;49.496;6.010;2023-02-01T17:15:29;98160.81;;;3.42;100.00
55079;BME280;55187;49.496;6.010;2023-02-01T17:17:57;98167.19;;;3.49;100.00
55079;BME280;55187;49.496;6.010;2023-02-01T17:20:29;98154.38;;;3.46;100.00
55079;BME280;55187;49.496;6.010;2023-02-01T17:22:57;98167.47;;;3.46;100.00
55079;BME280;55187;49.496;6.010;2023-02-01T17:25:24;98159.34;;;3.49;100.00
55079;BME280;55187;49.496;6.010;2023-02-01T17:27:52;98167.78;;;3.52;100.00
55079;BME280;55187;49.496;6.010;2023-02-01T17:30:18;98163.25;;;3.54;100.00
55079;BME280;55187;49.496;6.010;2023-02-01T17:32:45;98162.56;;;3.52;100.00
55079;BME280;55187;49.496;6.010;2023-02-01T17:35:22;98167.59;;;3.44;100.00
55079;BME280;55187;49.496;6.010;2023-02-01T17:37:50;98160.13;;;3.40;100.00
55079;BME280;55187;49.496;6.010;2023-02-01T17:40:17;98173.56;;;3.35;100.00
55079;BME280;55187;49.496;6.010;2023-02-01T17:42:43;98174.59;;;3.23;100.00
55079;BME280;55187;49.496;6.010;2023-02-01T17:48:04;98176.03;;;2.94;100.00
55079;BME280;55187;49.496;6.010;2023-02-01T17:50:31;98181.16;;;2.73;100.00
55079;BME280;55187;49.496;6.010;2023-02-01T17:52:59;98185.81;;;2.81;100.00
55079;BME280;55187;49.496;6.010;2023-02-01T17:55:28;98187.25;;;2.74;100.00
55079;BME280;55187;49.496;6.010;2023-02-01T17:59:06;98197.38;;;2.56;100.00
55079;BME280;55187;49.496;6.010;2023-02-01T18:01:32;98198.28;;;2.66;100.00
55079;BME280;55187;49.496;6.010;2023-02-01T18:03:59;98195.81;;;2.65;100.00
55079;BME280;55187;49.496;6.010;2023-02-01T18:06:26;98196.00;;;2.84;100.00
55079;BME280;55187;49.496;6.010;2023-02-01T18:08:52;98203.94;;;2.94;100.00
55079;BME280;55187;49.496;6.010;2023-02-01T18:11:22;98207.25;;;2.96;100.00
55079;BME280;55187;49.496;6.010;2023-02-01T18:13:51;98198.66;;;3.05;100.00
55079;BME280;55187;49.496;6.010;2023-02-01T18:16:23;98202.25;;;3.04;100.00
55079;BME280;55187;49.496;6.010;2023-02-01T18:18:50;98201.88;;;3.09;100.00
55079;BME280;55187;49.496;6.010;2023-02-01T18:21:19;98181.16;;;3.17;100.00
55079;BME280;55187;49.496;6.010;2023-02-01T18:23:47;98184.47;;;3.19;100.00
55079;BME280;55187;49.496;6.010;2023-02-01T18:26:16;98188.06;;;3.18;100.00
55079;BME280;55187;49.496;6.010;2023-02-01T18:28:43;98190.53;;;3.20;100.00
55079;BME280;55187;49.496;6.010;2023-02-01T18:31:24;98193.72;;;3.23;100.00
55079;BME280;55187;49.496;6.010;2023-02-01T18:33:51;98192.75;;;3.24;100.00
55079;BME280;55187;49.496;6.010;2023-02-01T18:36:18;98186.72;;;3.24;100.00
55079;BME280;55187;49.496;6.010;2023-02-01T18:38:45;98188.63;;;3.22;100.00
55079;BME280;55187;49.496;6.010;2023-02-01T18:41:17;98193.28;;;3.18;100.00
55079;BME280;55187;49.496;6.010;2023-02-01T18:43:46;98191.16;;;3.12;100.00
55079;BME280;55187;49.496;6.010;2023-02-01T18:46:13;98191.75;;;3.15;100.00
55079;BME280;55187;49.496;6.010;2023-02-01T18:48:40;98194.56;;;3.24;100.00
55079;BME280;55187;49.496;6.010;2023-02-01T18:51:16;98192.97;;;3.32;100.00
55079;BME280;55187;49.496;6.010;2023-02-01T18:53:48;98198.09;;;3.34;100.00
55079;BME280;55187;49.496;6.010;2023-02-01T18:56:16;98195.91;;;3.39;100.00
55079;BME280;55187;49.496;6.010;2023-02-01T18:58:46;98190.34;;;3.32;100.00
55079;BME280;55187;49.496;6.010;2023-02-01T19:01:18;98200.06;;;3.42;100.00
55079;BME280;55187;49.496;6.010;2023-02-01T19:03:45;98200.88;;;3.42;100.00
55079;BME280;55187;49.496;6.010;2023-02-01T19:06:12;98207.59;;;3.35;100.00
55079;BME280;55187;49.496;6.010;2023-02-01T19:08:38;98202.94;;;3.39;100.00